Time;durP1;ratioP1;P1;durP2;ratioP2;P2;SDS_P1;SDS_P2;PMS_P1;PMS_P2;Temp;Humidity;BMP_temperature;BMP_pressure;BME280_temperature;BME280_humidity;BME280_pressure;Samples;Min_cycle;Max_cycle;Signal;HPM_P1;HPM_P2
2022/01/12 00:02:14;;;;;;;0.00;0.00;;;3.20;79.70;;;;;;4178421;28;20123;-57
2022/01/12 00:04:36;;;;;;;0.00;0.00;;;3.10;79.30;;;;;;4178162;28;20080;-59
2022/01/12 00:06:59;;;;;;;0.00;0.00;;;3.00;79.30;;;;;;4178844;28;20079;-59
2022/01/12 00:09:21;;;;;;;0.00;0.00;;;2.80;79.30;;;;;;4178811;28;20501;-60
2022/01/12 00:11:43;;;;;;;0.00;0.00;;;2.60;79.80;;;;;;4178587;28;20053;-60
2022/01/12 00:14:06;;;;;;;0.00;0.00;;;2.60;80.20;;;;;;4178610;28;20045;-61
2022/01/12 00:16:28;;;;;;;0.00;0.00;;;2.60;80.40;;;;;;4178169;28;20049;-58
2022/01/12 00:18:51;;;;;;;0.00;0.00;;;2.50;80.40;;;;;;4178810;28;20372;-60
2022/01/12 00:21:13;;;;;;;0.00;0.00;;;2.50;80.70;;;;;;4178425;28;20049;-60
2022/01/12 00:23:37;;;;;;;0.00;0.00;;;2.50;80.70;;;;;;4178544;28;20041;-60
2022/01/12 00:33:52;;;;;;;0.00;0.00;;;2.40;81.10;;;;;;4150670;28;20050;-60
2022/01/12 00:36:15;;;;;;;0.00;0.00;;;2.30;81.40;;;;;;4177977;28;20048;-61
2022/01/12 00:38:38;;;;;;;0.00;0.00;;;2.10;81.80;;;;;;4164603;28;20033;-60
2022/01/12 00:41:00;;;;;;;0.00;0.00;;;2.00;82.20;;;;;;4177930;28;20057;-59
2022/01/12 00:43:26;;;;;;;0.00;0.00;;;1.80;82.30;;;;;;4164476;28;20400;-58
2022/01/12 00:45:49;;;;;;;0.00;0.00;;;1.80;82.60;;;;;;4178185;28;20079;-59
2022/01/12 00:48:13;;;;;;;0.00;0.00;;;1.90;82.60;;;;;;4164047;28;20528;-59
2022/01/12 00:50:36;;;;;;;0.00;0.00;;;1.90;82.40;;;;;;4177896;28;20045;-59
2022/01/12 00:52:59;;;;;;;0.00;0.00;;;1.90;82.30;;;;;;4178373;28;20053;-60
2022/01/12 00:55:21;;;;;;;0.00;0.00;;;1.80;82.10;;;;;;4178200;28;20569;-59
2022/01/12 00:57:44;;;;;;;0.00;0.00;;;1.70;82.70;;;;;;4178128;28;20131;-59
2022/01/12 01:00:07;;;;;;;0.00;0.00;;;1.70;83.10;;;;;;4162694;28;20042;-60
2022/01/12 01:02:30;;;;;;;0.00;0.00;;;1.70;83.10;;;;;;4146268;28;20152;-57
2022/01/12 01:04:55;;;;;;;0.00;0.00;;;1.70;82.80;;;;;;4167074;28;20048;-58
2022/01/12 01:07:19;;;;;;;0.00;0.00;;;1.70;82.80;;;;;;4177985;28;20132;-58
2022/01/12 01:09:50;;;;;;;0.00;0.00;;;1.70;83.10;;;;;;4178996;28;20472;-58
2022/01/12 01:12:13;;;;;;;0.00;0.00;;;1.70;83.00;;;;;;4178354;28;20564;-59
2022/01/12 01:15:01;;;;;;;0.00;0.00;;;1.60;83.20;;;;;;4191600;28;20048;-59
2022/01/12 01:26:06;;;;;;;0.00;0.00;;;1.40;84.30;;;;;;4164588;28;20041;-58
2022/01/12 01:28:40;;;;;;;0.00;0.00;;;1.30;84.80;;;;;;4177290;28;20121;-59
2022/01/12 01:31:15;;;;;;;0.00;0.00;;;1.20;85.10;;;;;;4153478;28;20072;-59
2022/01/12 01:33:38;;;;;;;0.00;0.00;;;1.20;85.40;;;;;;4177643;28;20052;-59
2022/01/12 01:36:06;;;;;;;0.00;0.00;;;1.20;85.30;;;;;;4177703;28;20049;-59
2022/01/12 01:38:30;;;;;;;0.00;0.00;;;1.20;85.20;;;;;;4177405;28;20481;-59
2022/01/12 01:40:56;;;;;;;0.00;0.00;;;1.10;85.00;;;;;;4177337;28;20483;-59
2022/01/12 01:43:44;;;;;;;0.00;0.00;;;1.20;85.00;;;;;;4169391;28;20132;-58
2022/01/12 01:54:26;;;;;;;0.00;0.00;;;1.20;84.50;;;;;;4163865;28;20113;-58
2022/01/12 01:56:50;;;;;;;0.00;0.00;;;1.20;84.30;;;;;;4177564;28;20057;-58
2022/01/12 01:59:14;;;;;;;0.00;0.00;;;1.20;84.40;;;;;;4177499;28;20128;-58
2022/01/12 02:01:40;;;;;;;0.00;0.00;;;1.30;84.40;;;;;;4163703;28;20483;-58
2022/01/12 02:04:12;;;;;;;0.00;0.00;;;1.50;84.00;;;;;;4178383;28;20047;-60
2022/01/12 02:06:58;;;;;;;0.00;0.00;;;1.60;83.60;;;;;;4178642;28;20411;-60
2022/01/12 02:09:21;;;;;;;0.00;0.00;;;1.80;83.00;;;;;;4177349;28;20045;-60
2022/01/12 02:12:02;;;;;;;0.00;0.00;;;1.90;82.70;;;;;;4177249;28;20479;-59
2022/01/12 02:14:29;;;;;;;0.00;0.00;;;1.90;82.20;;;;;;4177050;28;20047;-58
2022/01/12 02:17:13;;;;;;;0.00;0.00;;;2.00;82.10;;;;;;4178464;28;20392;-60
2022/01/12 02:41:14;;;;;;;0.00;0.00;;;1.60;81.30;;;;;;4163555;28;20045;-59
2022/01/12 02:50:36;;;;;;;0.00;0.00;;;1.60;81.10;;;;;;4163770;28;20056;-59
2022/01/12 02:54:35;;;;;;;0.00;0.00;;;1.70;80.80;;;;;;4148398;28;20177;-59
2022/01/12 02:56:57;;;;;;;0.00;0.00;;;1.70;80.70;;;;;;4149663;28;20490;-59
2022/01/12 02:59:20;;;;;;;0.00;0.00;;;1.70;80.70;;;;;;4149694;28;20096;-60
2022/01/12 03:02:15;;;;;;;0.00;0.00;;;1.80;80.50;;;;;;4149488;28;20128;-59
2022/01/12 03:04:37;;;;;;;0.00;0.00;;;1.80;80.40;;;;;;4149236;28;20451;-59
2022/01/12 03:07:06;;;;;;;0.00;0.00;;;1.70;80.70;;;;;;4177149;28;20041;-60
2022/01/12 03:09:32;;;;;;;0.00;0.00;;;1.80;80.80;;;;;;4149520;28;20053;-59
2022/01/12 03:11:55;;;;;;;0.00;0.00;;;1.90;80.90;;;;;;4162631;28;20054;-59
2022/01/12 03:14:18;;;;;;;0.00;0.00;;;1.90;80.60;;;;;;4162677;28;20080;-59
2022/01/12 03:16:42;;;;;;;0.00;0.00;;;2.00;80.60;;;;;;4170548;28;20455;-60
2022/01/12 03:19:11;;;;;;;0.00;0.00;;;2.00;80.30;;;;;;4178994;28;20049;-59
2022/01/12 03:21:35;;;;;;;0.00;0.00;;;1.80;80.10;;;;;;4165500;28;20633;-59
2022/01/12 03:24:03;;;;;;;0.00;0.00;;;1.70;80.40;;;;;;4165358;28;20046;-59
2022/01/12 03:26:29;;;;;;;0.00;0.00;;;1.60;80.40;;;;;;4148948;28;20479;-60
2022/01/12 03:28:54;;;;;;;0.00;0.00;;;1.60;80.40;;;;;;4163022;28;20530;-58
2022/01/12 03:31:20;;;;;;;0.00;0.00;;;1.60;80.20;;;;;;4162657;28;20041;-59
2022/01/12 03:36:42;;;;;;;0.00;0.00;;;1.30;80.10;;;;;;4162929;28;20045;-58
2022/01/12 03:38:58;;;;;;;0.00;0.00;;;1.30;80.60;;;;;;4162477;28;20515;-59
2022/01/12 03:41:22;;;;;;;0.00;0.00;;;1.30;80.70;;;;;;4176353;28;20136;-60
2022/01/12 03:43:47;;;;;;;0.00;0.00;;;1.40;80.70;;;;;;4173298;28;20044;-60
2022/01/12 03:46:20;;;;;;;0.00;0.00;;;1.30;80.50;;;;;;4179171;28;20123;-59
2022/01/12 03:48:43;;;;;;;0.00;0.00;;;1.40;80.50;;;;;;4164798;28;20041;-60
2022/01/12 03:51:07;;;;;;;0.00;0.00;;;1.50;80.20;;;;;;4178827;28;20063;-60
2022/01/12 03:53:29;;;;;;;0.00;0.00;;;1.50;80.20;;;;;;4165182;28;20442;-59
2022/01/12 03:55:51;;;;;;;0.00;0.00;;;1.50;80.20;;;;;;4165306;28;20502;-60
2022/01/12 03:58:14;;;;;;;0.00;0.00;;;1.60;80.30;;;;;;4164778;28;20037;-60
2022/01/12 04:00:37;;;;;;;0.00;0.00;;;1.70;79.90;;;;;;4164794;28;20116;-60
2022/01/12 04:03:05;;;;;;;0.00;0.00;;;1.80;79.70;;;;;;4165089;28;20123;-59
2022/01/12 04:10:41;;;;;;;0.00;0.00;;;1.80;79.30;;;;;;4160183;28;20046;-59
2022/01/12 04:13:04;;;;;;;0.00;0.00;;;1.80;79.00;;;;;;4169428;28;20072;-60
2022/01/12 04:15:27;;;;;;;0.00;0.00;;;1.90;78.80;;;;;;4164747;28;20048;-60
2022/01/12 04:17:50;;;;;;;0.00;0.00;;;1.80;78.60;;;;;;4178543;28;20418;-60
2022/01/12 04:20:12;;;;;;;0.00;0.00;;;1.70;78.70;;;;;;4164482;28;20111;-60
2022/01/12 04:25:17;;;;;;;0.00;0.00;;;1.60;78.90;;;;;;4178407;28;20055;-60
2022/01/12 04:27:40;;;;;;;0.00;0.00;;;1.60;78.90;;;;;;4178431;28;20102;-59
2022/01/12 04:30:04;;;;;;;0.00;0.00;;;1.50;78.90;;;;;;4164629;28;20107;-60
2022/01/12 04:32:27;;;;;;;0.00;0.00;;;1.50;79.20;;;;;;4177917;28;20052;-59
2022/01/12 04:34:50;;;;;;;0.00;0.00;;;1.50;79.20;;;;;;4164724;28;20057;-59
2022/01/12 04:37:12;;;;;;;0.00;0.00;;;1.40;79.40;;;;;;4164706;28;20050;-59
2022/01/12 04:39:34;;;;;;;0.00;0.00;;;1.30;79.50;;;;;;4153238;28;20090;-59
2022/01/12 04:41:57;;;;;;;0.00;0.00;;;1.30;79.70;;;;;;4162462;28;20660;-58
2022/01/12 04:44:19;;;;;;;0.00;0.00;;;1.30;79.70;;;;;;4163981;28;20041;-59
2022/01/12 04:46:52;;;;;;;0.00;0.00;;;1.40;79.80;;;;;;4178389;28;20556;-59
2022/01/12 04:51:57;;;;;;;0.00;0.00;;;1.10;80.70;;;;;;4164263;28;20049;-52
2022/01/12 04:54:19;;;;;;;0.00;0.00;;;1.00;81.30;;;;;;4178159;28;20446;-58
2022/01/12 04:56:42;;;;;;;0.00;0.00;;;1.00;81.60;;;;;;4174192;28;20053;-60
2022/01/12 04:59:05;;;;;;;0.00;0.00;;;1.00;81.80;;;;;;4155793;28;20045;-53
2022/01/12 05:01:28;;;;;;;0.00;0.00;;;1.10;81.80;;;;;;4177523;28;20073;-60
2022/01/12 05:09:11;;;;;;;0.00;0.00;;;1.00;82.10;;;;;;4178399;28;20054;-60
2022/01/12 05:14:18;;;;;;;;;;;0.80;83.00;;;;;;4178507;28;20048;-59
2022/01/12 05:16:41;;;;;;;0.00;0.00;;;0.70;83.40;;;;;;4174094;28;19921;-58
2022/01/12 05:19:05;;;;;;;0.00;0.00;;;0.70;83.60;;;;;;4148313;28;20513;-58
2022/01/12 05:21:28;;;;;;;0.00;0.00;;;0.80;83.60;;;;;;4158443;28;20060;-56
2022/01/12 05:23:51;;;;;;;0.00;0.00;;;0.80;83.70;;;;;;4178340;28;20481;-58
2022/01/12 05:26:14;;;;;;;0.00;0.00;;;0.80;83.80;;;;;;4177981;28;20043;-59
2022/01/12 05:28:39;;;;;;;0.00;0.00;;;0.90;83.80;;;;;;4164520;28;20096;-56
2022/01/12 05:31:03;;;;;;;0.00;0.00;;;1.00;83.70;;;;;;4164115;28;20042;-58
2022/01/12 05:33:27;;;;;;;0.00;0.00;;;1.00;83.70;;;;;;4164099;28;20483;-59
2022/01/12 05:35:49;;;;;;;0.00;0.00;;;1.10;83.70;;;;;;4178051;28;20049;-59
2022/01/12 05:38:14;;;;;;;0.00;0.00;;;1.10;83.70;;;;;;4177822;28;20139;-59
2022/01/12 05:40:37;;;;;;;0.00;0.00;;;1.10;83.70;;;;;;4177903;28;20134;-59
2022/01/12 05:43:23;;;;;;;0.00;0.00;;;1.10;83.70;;;;;;4164301;28;20049;-60
2022/01/12 05:45:46;;;;;;;0.00;0.00;;;1.00;83.80;;;;;;4178000;28;20119;-60
2022/01/12 05:50:32;;;;;;;0.00;0.00;;;0.90;83.90;;;;;;4177428;28;20043;-60
2022/01/12 05:53:03;;;;;;;0.00;0.00;;;0.90;84.10;;;;;;4171180;28;20057;-58
2022/01/12 05:55:25;;;;;;;0.00;0.00;;;1.00;83.70;;;;;;4147918;28;20112;-60
2022/01/12 05:57:48;;;;;;;0.00;0.00;;;1.00;83.60;;;;;;4175369;28;20072;-59
2022/01/12 06:00:14;;;;;;;0.00;0.00;;;1.00;83.40;;;;;;4191930;28;20132;-59
2022/01/12 06:02:41;;;;;;;0.00;0.00;;;0.90;83.60;;;;;;4165605;28;20037;-60
2022/01/12 06:05:09;;;;;;;0.00;0.00;;;0.80;83.60;;;;;;4181018;28;20084;-58
2022/01/12 06:07:31;;;;;;;0.00;0.00;;;0.70;83.70;;;;;;4167331;28;20050;-59
2022/01/12 06:09:54;;;;;;;0.00;0.00;;;0.60;84.10;;;;;;4181023;28;20052;-60
2022/01/12 06:12:17;;;;;;;0.00;0.00;;;0.70;84.00;;;;;;4180463;28;20049;-60
2022/01/12 06:14:41;;;;;;;0.00;0.00;;;0.80;83.50;;;;;;4181281;28;20045;-60
2022/01/12 06:17:04;;;;;;;0.00;0.00;;;0.80;83.10;;;;;;4154071;28;20053;-60
2022/01/12 06:19:27;;;;;;;0.00;0.00;;;0.70;83.20;;;;;;4180907;28;20044;-60
2022/01/12 06:22:00;;;;;;;0.00;0.00;;;0.50;83.40;;;;;;4166975;28;20045;-59
2022/01/12 06:24:24;;;;;;;0.00;0.00;;;0.50;83.60;;;;;;4178629;28;20052;-59
2022/01/12 06:26:47;;;;;;;0.00;0.00;;;0.30;83.90;;;;;;4150798;28;20065;-59
2022/01/12 06:31:32;;;;;;;0.00;0.00;;;0.40;84.10;;;;;;4164044;28;20053;-59
2022/01/12 06:33:55;;;;;;;0.00;0.00;;;0.30;84.10;;;;;;4192093;28;20048;-57
2022/01/12 06:36:21;;;;;;;0.00;0.00;;;0.30;84.30;;;;;;4152903;28;20053;-59
2022/01/12 06:38:45;;;;;;;0.00;0.00;;;0.30;84.30;;;;;;4180613;28;20049;-58
2022/01/12 06:41:09;;;;;;;0.00;0.00;;;0.20;84.40;;;;;;4180414;28;20449;-58
2022/01/12 06:43:35;;;;;;;0.00;0.00;;;0.20;84.50;;;;;;4180660;28;20045;-58
2022/01/12 06:45:58;;;;;;;0.00;0.00;;;0.20;84.60;;;;;;4180324;28;20045;-58
2022/01/12 06:48:21;;;;;;;0.00;0.00;;;0.20;84.60;;;;;;4166146;28;20046;-58
2022/01/12 06:50:43;;;;;;;0.00;0.00;;;0.40;84.30;;;;;;4180301;28;20448;-59
2022/01/12 06:53:06;;;;;;;0.00;0.00;;;0.60;84.00;;;;;;4180389;28;20049;-58
2022/01/12 06:55:28;;;;;;;0.00;0.00;;;0.70;83.50;;;;;;4166569;28;20049;-59
2022/01/12 06:57:51;;;;;;;0.00;0.00;;;0.80;83.10;;;;;;4194339;28;20521;-59
2022/01/12 07:00:14;;;;;;;0.00;0.00;;;0.90;82.80;;;;;;4179764;28;20124;-59
2022/01/12 07:02:37;;;;;;;0.00;0.00;;;0.90;82.60;;;;;;4150092;28;20049;-58
2022/01/12 07:05:00;;;;;;;0.00;0.00;;;0.90;82.70;;;;;;4177612;28;20045;-58
2022/01/12 07:07:23;;;;;;;0.00;0.00;;;0.70;82.40;;;;;;4150034;28;20046;-58
2022/01/12 07:09:50;;;;;;;0.00;0.00;;;0.50;82.70;;;;;;4191095;28;20049;-58
2022/01/12 07:12:16;;;;;;;0.00;0.00;;;0.40;83.10;;;;;;4179507;28;20147;-59
2022/01/12 07:14:38;;;;;;;0.00;0.00;;;0.30;83.40;;;;;;4166389;28;20434;-58
2022/01/12 07:17:03;;;;;;;0.00;0.00;;;0.20;83.60;;;;;;4166772;28;20057;-59
2022/01/12 07:19:26;;;;;;;0.00;0.00;;;0.10;83.90;;;;;;4179964;28;20095;-58
2022/01/12 07:21:50;;;;;;;0.00;0.00;;;0.00;84.20;;;;;;4152190;28;20049;-58
2022/01/12 07:24:12;;;;;;;0.00;0.00;;;0.00;84.40;;;;;;4179897;28;20084;-58
2022/01/12 07:26:34;;;;;;;0.00;0.00;;;0.10;84.00;;;;;;4193992;28;20555;-58
2022/01/12 07:28:57;;;;;;;0.00;0.00;;;0.20;83.70;;;;;;4179980;28;20048;-60
2022/01/12 07:31:19;;;;;;;0.00;0.00;;;0.10;83.70;;;;;;4179685;28;20107;-55
2022/01/12 07:33:42;;;;;;;0.00;0.00;;;0.10;83.80;;;;;;4179650;28;20059;-58
2022/01/12 07:36:05;;;;;;;0.00;0.00;;;0.10;83.80;;;;;;4179672;28;20086;-58
2022/01/12 07:38:27;;;;;;;0.00;0.00;;;0.20;83.90;;;;;;4179275;28;20053;-58
2022/01/12 07:40:49;;;;;;;0.00;0.00;;;0.30;83.80;;;;;;4165512;28;20041;-58
2022/01/12 07:43:12;;;;;;;0.00;0.00;;;0.40;83.60;;;;;;4179587;28;20068;-58
2022/01/12 07:45:36;;;;;;;0.00;0.00;;;0.40;83.50;;;;;;4179501;28;20541;-58
2022/01/12 07:47:59;;;;;;;0.00;0.00;;;0.40;83.60;;;;;;4179551;28;20453;-58
2022/01/12 07:50:21;;;;;;;0.00;0.00;;;0.30;83.90;;;;;;4165101;28;20049;-58
2022/01/12 07:52:45;;;;;;;0.00;0.00;;;0.30;84.40;;;;;;4179536;28;20448;-58
2022/01/12 07:55:08;;;;;;;0.00;0.00;;;0.40;84.40;;;;;;4179488;28;20132;-59
2022/01/12 07:57:32;;;;;;;0.00;0.00;;;0.40;84.40;;;;;;4179397;28;20045;-58
2022/01/12 07:59:54;;;;;;;0.00;0.00;;;0.50;84.60;;;;;;4179389;28;20049;-58
2022/01/12 08:02:17;;;;;;;0.00;0.00;;;0.60;84.60;;;;;;4177994;28;20448;-60
2022/01/12 08:04:39;;;;;;;0.00;0.00;;;0.70;84.60;;;;;;4179528;28;20726;-58
2022/01/12 08:07:03;;;;;;;0.00;0.00;;;0.90;84.50;;;;;;4179460;28;20122;-58
2022/01/12 08:09:26;;;;;;;0.00;0.00;;;1.00;84.10;;;;;;4179390;28;20526;-57
2022/01/12 08:11:48;;;;;;;0.00;0.00;;;1.00;83.70;;;;;;4179095;28;20047;-57
2022/01/12 08:14:11;;;;;;;0.00;0.00;;;1.20;83.50;;;;;;4179255;28;20140;-59
2022/01/12 08:16:33;;;;;;;0.00;0.00;;;1.40;83.40;;;;;;4178723;28;20045;-61
2022/01/12 08:18:56;;;;;;;0.00;0.00;;;1.50;82.50;;;;;;4179074;28;20064;-57
2022/01/12 08:21:19;;;;;;;0.00;0.00;;;1.80;82.30;;;;;;4178703;28;20052;-58
2022/01/12 08:23:41;;;;;;;0.00;0.00;;;2.10;81.50;;;;;;4165519;28;20572;-56
2022/01/12 08:26:04;;;;;;;0.00;0.00;;;2.40;80.20;;;;;;4162098;28;20095;-59
2022/01/12 08:28:26;;;;;;;0.00;0.00;;;2.70;79.40;;;;;;4164116;28;20045;-59
2022/01/12 08:30:49;;;;;;;0.00;0.00;;;2.60;77.30;;;;;;4189141;28;20074;-58
2022/01/12 08:33:11;;;;;;;0.00;0.00;;;2.70;77.20;;;;;;4165007;28;20103;-59
2022/01/12 08:35:34;;;;;;;0.00;0.00;;;2.90;76.20;;;;;;4178514;28;20136;-59
2022/01/12 08:37:57;;;;;;;0.00;0.00;;;3.00;75.40;;;;;;4192596;28;20573;-60
2022/01/12 08:40:20;;;;;;;0.00;0.00;;;3.10;74.80;;;;;;4192384;28;20045;-60
2022/01/12 08:42:43;;;;;;;0.00;0.00;;;3.40;74.40;;;;;;4178675;28;20037;-59
2022/01/12 08:45:06;;;;;;;0.00;0.00;;;3.50;72.70;;;;;;4178659;28;20155;-59
2022/01/12 08:47:29;;;;;;;0.00;0.00;;;3.60;72.30;;;;;;4178814;28;20520;-60
2022/01/12 08:49:52;;;;;;;0.00;0.00;;;3.50;71.40;;;;;;4164889;28;20136;-60
2022/01/12 08:52:15;;;;;;;0.00;0.00;;;3.40;71.60;;;;;;4178014;28;20083;-60
2022/01/12 08:54:38;;;;;;;0.00;0.00;;;3.30;72.00;;;;;;4161003;28;20049;-59
2022/01/12 08:57:02;;;;;;;0.00;0.00;;;3.20;72.00;;;;;;4182728;28;20103;-59
2022/01/12 08:59:24;;;;;;;0.00;0.00;;;3.40;71.90;;;;;;4178536;28;20068;-60
2022/01/12 09:01:47;;;;;;;0.00;0.00;;;3.50;71.70;;;;;;4178262;28;20521;-60
2022/01/12 09:04:11;;;;;;;0.00;0.00;;;3.50;71.40;;;;;;4178468;28;20422;-59
2022/01/12 09:06:33;;;;;;;0.00;0.00;;;3.40;71.90;;;;;;4164216;28;20056;-59
2022/01/12 09:08:55;;;;;;;0.00;0.00;;;3.30;72.40;;;;;;4192398;28;20508;-59
2022/01/12 09:11:18;;;;;;;0.00;0.00;;;3.40;73.00;;;;;;4177969;28;20163;-59
2022/01/12 09:13:41;;;;;;;0.00;0.00;;;3.70;72.80;;;;;;4178191;28;20041;-60
2022/01/12 09:16:06;;;;;;;0.00;0.00;;;3.70;71.50;;;;;;4178363;28;20083;-59
2022/01/12 09:18:30;;;;;;;0.00;0.00;;;3.80;71.20;;;;;;4164026;28;20049;-59
2022/01/12 09:20:53;;;;;;;0.00;0.00;;;3.90;71.00;;;;;;4191959;28;20395;-60
2022/01/12 09:23:16;;;;;;;0.00;0.00;;;4.00;70.30;;;;;;4178248;28;20072;-59
2022/01/12 09:25:40;;;;;;;0.00;0.00;;;4.00;69.80;;;;;;4180014;28;20056;-60
2022/01/12 09:28:03;;;;;;;0.00;0.00;;;4.10;69.40;;;;;;4161627;28;20045;-59
2022/01/12 09:30:27;;;;;;;0.00;0.00;;;4.30;69.40;;;;;;4177209;28;20049;-59
2022/01/12 09:32:51;;;;;;;0.00;0.00;;;4.50;69.30;;;;;;4178207;28;20047;-60
2022/01/12 09:35:16;;;;;;;0.00;0.00;;;4.70;67.40;;;;;;4178223;28;20135;-60
2022/01/12 09:37:39;;;;;;;0.00;0.00;;;4.90;67.50;;;;;;4181561;28;20422;-60
2022/01/12 09:40:02;;;;;;;0.00;0.00;;;5.10;67.00;;;;;;4195224;28;20040;-60
2022/01/12 09:42:24;;;;;;;0.00;0.00;;;5.20;66.90;;;;;;4164603;28;20045;-61
2022/01/12 09:44:48;;;;;;;0.00;0.00;;;5.30;66.60;;;;;;4164930;28;20172;-60
2022/01/12 09:47:11;;;;;;;0.00;0.00;;;5.40;66.10;;;;;;4172831;28;20759;-59
2022/01/12 09:49:34;;;;;;;0.00;0.00;;;5.50;65.90;;;;;;4181373;28;20056;-59
2022/01/12 09:51:58;;;;;;;0.00;0.00;;;5.60;64.10;;;;;;4194896;28;20117;-60
2022/01/12 09:54:20;;;;;;;0.00;0.00;;;5.50;63.60;;;;;;4194768;28;20098;-60
2022/01/12 09:56:42;;;;;;;0.00;0.00;;;5.60;63.70;;;;;;4181483;28;20070;-60
2022/01/12 09:59:06;;;;;;;0.00;0.00;;;5.60;62.80;;;;;;4195235;28;20052;-60
2022/01/12 10:01:30;;;;;;;0.00;0.00;;;5.70;62.40;;;;;;4170236;28;20073;-60
2022/01/12 10:03:53;;;;;;;0.00;0.00;;;5.40;63.30;;;;;;4164684;28;20064;-60
2022/01/12 10:06:17;;;;;;;0.00;0.00;;;5.70;63.90;;;;;;4180242;28;20107;-60
2022/01/12 10:08:40;;;;;;;0.00;0.00;;;6.10;63.70;;;;;;4181063;28;20137;-60
2022/01/12 10:11:05;;;;;;;0.00;0.00;;;6.20;61.80;;;;;;4180827;28;20044;-59
2022/01/12 10:13:31;;;;;;;0.00;0.00;;;6.00;61.00;;;;;;4167272;28;20048;-58
2022/01/12 10:15:54;;;;;;;0.00;0.00;;;5.70;60.90;;;;;;4181050;28;20071;-58
2022/01/12 10:18:18;;;;;;;0.00;0.00;;;5.40;61.20;;;;;;4194447;28;20045;-58
2022/01/12 10:20:47;;;;;;;0.00;0.00;;;5.10;61.30;;;;;;4194765;28;20040;-58
2022/01/12 10:23:11;;;;;;;0.00;0.00;;;5.10;60.90;;;;;;4180799;28;20128;-59
2022/01/12 10:25:35;;;;;;;0.00;0.00;;;5.00;59.60;;;;;;4180820;28;20059;-59
2022/01/12 10:28:09;;;;;;;0.00;0.00;;;5.30;60.00;;;;;;4166912;28;20534;-60
2022/01/12 10:30:32;;;;;;;0.00;0.00;;;5.50;58.20;;;;;;4180030;28;20445;-58
2022/01/12 10:33:04;;;;;;;0.00;0.00;;;5.80;58.10;;;;;;4167228;28;20122;-59
2022/01/12 10:35:29;;;;;;;0.00;0.00;;;6.40;57.50;;;;;;4180744;28;20053;-59
2022/01/12 10:37:51;;;;;;;0.00;0.00;;;6.70;55.70;;;;;;4166877;28;20042;-59
2022/01/12 10:40:13;;;;;;;0.00;0.00;;;7.10;55.00;;;;;;4194081;28;20079;-60
2022/01/12 10:42:38;;;;;;;0.00;0.00;;;7.30;54.70;;;;;;4180649;28;20075;-59
2022/01/12 10:45:02;;;;;;;0.00;0.00;;;7.40;54.90;;;;;;4180619;28;20079;-60
2022/01/12 10:47:29;;;;;;;0.00;0.00;;;7.60;54.30;;;;;;4169883;28;20046;-59
2022/01/12 10:49:55;;;;;;;0.00;0.00;;;7.60;55.50;;;;;;4177887;28;20481;-60
2022/01/12 10:52:17;;;;;;;0.00;0.00;;;8.20;54.00;;;;;;4164163;28;20080;-58
2022/01/12 10:54:50;;;;;;;0.00;0.00;;;8.20;53.00;;;;;;4166425;28;20120;-59
2022/01/12 10:57:18;;;;;;;0.00;0.00;;;7.80;52.20;;;;;;4166512;28;20128;-60
2022/01/12 10:59:40;;;;;;;0.00;0.00;;;7.90;53.60;;;;;;4180149;28;20484;-60
2022/01/12 11:02:03;;;;;;;0.00;0.00;;;8.40;52.50;;;;;;4193118;28;20049;-60
2022/01/12 11:04:26;;;;;;;0.00;0.00;;;8.60;52.20;;;;;;4179840;28;20052;-60
2022/01/12 11:06:48;;;;;;;0.00;0.00;;;8.80;51.80;;;;;;4166582;28;20102;-60
2022/01/12 11:09:13;;;;;;;0.00;0.00;;;9.10;50.90;;;;;;4179265;28;20072;-59
2022/01/12 11:11:35;;;;;;;0.00;0.00;;;8.90;51.10;;;;;;4165817;28;20139;-60
2022/01/12 11:13:59;;;;;;;0.00;0.00;;;9.40;50.70;;;;;;4178121;28;20414;-60
2022/01/12 11:16:23;;;;;;;0.00;0.00;;;9.70;49.90;;;;;;4165045;28;20055;-58
2022/01/12 11:18:46;;;;;;;0.00;0.00;;;9.90;49.20;;;;;;4180347;28;20052;-61
2022/01/12 11:21:16;;;;;;;0.00;0.00;;;10.20;48.80;;;;;;4179767;28;20049;-60
2022/01/12 11:23:41;;;;;;;0.00;0.00;;;11.00;47.50;;;;;;4179986;28;20136;-61
2022/01/12 11:26:32;;;;;;;0.00;0.00;;;11.60;46.20;;;;;;4166389;28;20049;-60
2022/01/12 11:28:56;;;;;;;0.00;0.00;;;12.30;45.50;;;;;;4179705;28;20052;-61
2022/01/12 11:31:24;;;;;;;0.00;0.00;;;12.90;45.10;;;;;;4179540;28;20106;-61
2022/01/12 11:33:47;;;;;;;0.00;0.00;;;13.00;43.40;;;;;;4165354;28;20123;-61
2022/01/12 11:36:22;;;;;;;0.00;0.00;;;12.40;43.30;;;;;;4179846;28;20068;-61
2022/01/12 11:38:47;;;;;;;0.00;0.00;;;12.30;44.10;;;;;;4174804;28;20041;-60
2022/01/12 11:41:26;;;;;;;0.00;0.00;;;12.70;43.80;;;;;;4177108;28;20584;-61
2022/01/12 11:44:16;;;;;;;0.00;0.00;;;12.10;43.20;;;;;;4163187;28;20092;-61
2022/01/12 11:46:44;;;;;;;0.00;0.00;;;11.60;43.60;;;;;;4162792;28;20045;-60
2022/01/12 11:49:11;;;;;;;0.00;0.00;;;10.80;44.70;;;;;;4176857;28;20228;-61
2022/01/12 11:51:42;;;;;;;0.00;0.00;;;9.70;46.30;;;;;;4149240;28;20059;-60
2022/01/12 11:54:16;;;;;;;0.00;0.00;;;9.00;48.00;;;;;;4163128;28;20053;-60
2022/01/12 11:56:57;;;;;;;0.00;0.00;;;8.10;49.30;;;;;;4166584;28;20060;-60
2022/01/12 11:59:20;;;;;;;0.00;0.00;;;7.50;50.70;;;;;;4178636;28;20076;-60
2022/01/12 12:01:48;;;;;;;0.00;0.00;;;7.20;51.40;;;;;;4179280;28;20049;-60
2022/01/12 12:04:31;;;;;;;0.00;0.00;;;6.70;52.80;;;;;;4179309;28;20128;-59
2022/01/12 12:07:08;;;;;;;0.00;0.00;;;6.10;54.60;;;;;;4193309;28;20045;-60
2022/01/12 12:09:43;;;;;;;0.00;0.00;;;5.80;55.40;;;;;;4193204;28;20487;-55
2022/01/12 12:12:13;;;;;;;0.00;0.00;;;5.60;56.50;;;;;;4179006;28;20526;-60
2022/01/12 12:14:35;;;;;;;0.00;0.00;;;5.70;56.80;;;;;;4175412;28;20042;-60
2022/01/12 12:16:58;;;;;;;0.00;0.00;;;5.70;57.00;;;;;;4162696;28;20049;-59
2022/01/12 12:19:22;;;;;;;0.00;0.00;;;5.80;57.10;;;;;;4148864;28;20049;-59
2022/01/12 12:21:48;;;;;;;0.00;0.00;;;5.80;57.00;;;;;;4175176;28;20139;-59
2022/01/12 12:24:14;;;;;;;0.00;0.00;;;5.70;57.40;;;;;;4178646;28;20110;-59
2022/01/12 12:26:54;;;;;;;0.00;0.00;;;5.30;59.20;;;;;;4192837;28;20120;-60
2022/01/12 12:29:18;;;;;;;0.00;0.00;;;5.10;60.50;;;;;;4179061;28;20072;-59
2022/01/12 12:31:40;;;;;;;0.00;0.00;;;5.30;60.40;;;;;;4178577;28;20045;-59
2022/01/12 12:34:14;;;;;;;0.00;0.00;;;5.60;59.90;;;;;;4178572;28;20127;-59
2022/01/12 12:36:36;;;;;;;0.00;0.00;;;5.30;60.90;;;;;;4178791;28;20037;-59
2022/01/12 12:39:12;;;;;;;0.00;0.00;;;5.40;61.20;;;;;;4192841;28;20795;-59
2022/01/12 12:41:40;;;;;;;0.00;0.00;;;5.50;61.20;;;;;;4178718;28;20523;-60
2022/01/12 12:44:03;;;;;;;0.00;0.00;;;5.60;61.00;;;;;;4163386;28;20097;-60
2022/01/12 12:46:26;;;;;;;0.00;0.00;;;5.70;61.00;;;;;;4163901;28;20774;-60
2022/01/12 12:48:50;;;;;;;0.00;0.00;;;5.80;61.10;;;;;;4192568;28;20188;-59
2022/01/12 12:51:16;;;;;;;0.00;0.00;;;6.00;60.80;;;;;;4192233;28;20048;-57
2022/01/12 12:53:41;;;;;;;0.00;0.00;;;6.20;60.90;;;;;;4164739;28;20125;-60
2022/01/12 12:56:07;;;;;;;0.00;0.00;;;6.20;60.40;;;;;;4178637;28;20048;-60
2022/01/12 12:58:31;;;;;;;0.00;0.00;;;6.20;59.80;;;;;;4175884;28;20502;-60
2022/01/12 13:01:03;;;;;;;0.00;0.00;;;5.80;60.00;;;;;;4162132;28;20093;-59
2022/01/12 13:03:26;;;;;;;0.00;0.00;;;5.50;60.70;;;;;;4162328;28;20042;-58
2022/01/12 13:05:48;;;;;;;0.00;0.00;;;5.30;61.30;;;;;;4161942;28;20136;-60
2022/01/12 13:08:12;;;;;;;0.00;0.00;;;5.40;61.50;;;;;;4178200;28;20133;-57
2022/01/12 13:10:35;;;;;;;0.00;0.00;;;5.40;61.70;;;;;;4178023;28;20570;-59
2022/01/12 13:13:00;;;;;;;0.00;0.00;;;5.40;61.80;;;;;;4178537;28;20576;-62
2022/01/12 13:15:27;;;;;;;0.00;0.00;;;5.10;62.20;;;;;;4178542;28;20558;-59
2022/01/12 13:18:01;;;;;;;0.00;0.00;;;5.00;62.50;;;;;;4178364;28;20136;-60
2022/01/12 13:23:12;;;;;;;0.00;0.00;;;5.20;62.20;;;;;;4178359;28;20490;-60
2022/01/12 13:25:35;;;;;;;0.00;0.00;;;5.00;62.00;;;;;;4178380;28;20555;-59
2022/01/12 13:27:58;;;;;;;0.00;0.00;;;4.90;62.50;;;;;;4164706;28;20049;-60
2022/01/12 13:30:28;;;;;;;0.00;0.00;;;4.70;63.10;;;;;;4177877;28;20057;-58
2022/01/12 13:32:54;;;;;;;0.00;0.00;;;4.60;63.90;;;;;;4178042;28;20164;-59
2022/01/12 13:35:17;;;;;;;0.00;0.00;;;4.50;64.50;;;;;;4178114;28;20048;-59
2022/01/12 13:37:42;;;;;;;0.00;0.00;;;4.50;64.10;;;;;;4178177;28;20418;-58
2022/01/12 13:40:21;;;;;;;0.00;0.00;;;4.80;63.80;;;;;;4177938;28;20103;-61
2022/01/12 13:42:54;;;;;;;0.00;0.00;;;4.70;63.80;;;;;;4173685;28;20116;-58
2022/01/12 13:45:23;;;;;;;0.00;0.00;;;4.60;64.40;;;;;;4174857;28;20056;-58
2022/01/12 13:47:49;;;;;;;0.00;0.00;;;4.70;64.10;;;;;;4185167;28;20070;-60
2022/01/12 13:50:12;;;;;;;0.00;0.00;;;4.90;63.70;;;;;;4163993;28;20560;-60
2022/01/12 13:52:38;;;;;;;0.00;0.00;;;5.00;63.20;;;;;;4191864;28;20436;-60
2022/01/12 13:55:13;;;;;;;0.00;0.00;;;5.20;62.80;;;;;;4178214;28;20049;-55
2022/01/12 13:57:37;;;;;;;0.00;0.00;;;5.30;62.30;;;;;;4178042;28;20057;-58
2022/01/12 13:59:59;;;;;;;0.00;0.00;;;5.30;61.90;;;;;;4191777;28;20052;-59
2022/01/12 14:02:25;;;;;;;0.00;0.00;;;5.30;62.00;;;;;;4189776;28;20461;-59
2022/01/12 14:05:05;;;;;;;0.00;0.00;;;5.20;62.20;;;;;;4175255;28;20120;-59
2022/01/12 14:07:35;;;;;;;0.00;0.00;;;5.20;62.40;;;;;;4175260;28;20045;-58
2022/01/12 14:09:59;;;;;;;0.00;0.00;;;5.30;62.40;;;;;;4175303;28;20572;-59
2022/01/12 14:12:24;;;;;;;0.00;0.00;;;5.30;62.40;;;;;;4177074;28;20049;-59